createdAt,value
2018-10-17T00:06:02.481Z,998.45
2018-10-17T00:16:03.667Z,998.40
2018-10-17T00:26:02.678Z,998.33
2018-10-17T00:36:02.615Z,998.08
2018-10-17T00:46:02.603Z,998.07
2018-10-17T00:56:02.646Z,998.06
2018-10-17T01:06:02.551Z,998.04
2018-10-17T01:16:02.651Z,998.09
2018-10-17T01:26:02.684Z,998.07
2018-10-17T01:36:02.588Z,998.02
2018-10-17T01:46:02.734Z,997.95
2018-10-17T01:56:02.717Z,997.92
2018-10-17T02:06:02.561Z,997.72
2018-10-17T02:16:03.485Z,997.74
2018-10-17T02:26:02.851Z,997.71
2018-10-17T02:36:02.573Z,997.75
2018-10-17T02:46:02.632Z,997.75
2018-10-17T02:56:02.608Z,997.69
2018-10-17T03:06:02.826Z,997.70
2018-10-17T03:16:02.524Z,997.75
2018-10-17T03:26:02.591Z,997.92
2018-10-17T03:36:02.651Z,997.86
2018-10-17T03:46:02.745Z,997.87
2018-10-17T03:56:02.568Z,997.85
2018-10-17T04:06:02.584Z,998.14
2018-10-17T04:16:02.550Z,998.30
2018-10-17T04:26:02.558Z,998.37
2018-10-17T04:36:02.676Z,998.44
2018-10-17T04:46:02.581Z,998.49
2018-10-17T04:56:02.598Z,998.45
2018-10-17T05:06:03.172Z,998.45
2018-10-17T05:16:02.724Z,998.35
2018-10-17T05:26:02.551Z,998.45
2018-10-17T05:36:02.529Z,998.56
2018-10-17T05:46:02.602Z,998.67
2018-10-17T05:56:02.518Z,998.65
2018-10-17T06:06:02.623Z,998.67
2018-10-17T06:16:02.937Z,998.81
2018-10-17T06:26:02.541Z,998.79
2018-10-17T06:36:02.694Z,998.74
2018-10-17T06:46:02.649Z,998.82
2018-10-17T06:56:02.612Z,998.81
2018-10-17T07:06:02.701Z,998.83
2018-10-17T07:16:02.533Z,998.87
2018-10-17T07:26:02.532Z,998.87
2018-10-17T07:36:02.594Z,998.90
2018-10-17T07:46:03.239Z,998.87
2018-10-17T07:56:02.548Z,998.88
2018-10-17T08:06:03.632Z,998.94
2018-10-17T08:16:02.639Z,998.90
2018-10-17T08:26:02.683Z,998.94
2018-10-17T08:36:02.730Z,999.00
2018-10-17T08:46:02.635Z,998.92
2018-10-17T08:56:02.635Z,998.98
2018-10-17T09:06:02.750Z,999.06
2018-10-17T09:16:02.816Z,999.06
2018-10-17T09:26:02.945Z,999.12
2018-10-17T09:36:02.769Z,999.16
2018-10-17T09:46:04.954Z,999.02
2018-10-17T09:56:02.756Z,999.21
2018-10-17T10:06:03.480Z,999.16
2018-10-17T10:16:02.876Z,999.16
2018-10-17T10:26:02.854Z,999.14
2018-10-17T10:36:02.657Z,999.09
2018-10-17T10:46:03.359Z,999.08
2018-10-17T10:56:02.736Z,998.99
2018-10-17T11:06:02.894Z,998.91
2018-10-17T11:16:03.440Z,998.83
2018-10-17T11:26:03.414Z,998.78
2018-10-17T11:36:02.633Z,998.67
2018-10-17T11:46:02.673Z,998.69
2018-10-17T11:56:02.729Z,998.58
2018-10-17T12:06:02.653Z,998.39
2018-10-17T12:16:02.725Z,998.40
2018-10-17T12:36:09.053Z,998.31
2018-10-17T12:46:08.515Z,998.23
2018-10-17T12:56:08.628Z,998.13
2018-10-17T13:06:08.561Z,998.09
2018-10-17T13:16:08.556Z,998.18
2018-10-17T13:26:09.252Z,998.01
2018-10-17T13:36:08.609Z,998.08
2018-10-17T13:46:09.366Z,998.05
2018-10-17T13:56:09.417Z,998.07
2018-10-17T14:06:08.595Z,998.09
2018-10-17T14:16:08.665Z,998.15
2018-10-17T14:26:08.952Z,998.08
2018-10-17T14:36:09.062Z,997.98
2018-10-17T14:46:09.684Z,998.03
2018-10-17T14:56:08.538Z,998.09
2018-10-17T15:06:08.918Z,998.15
2018-10-17T15:16:08.627Z,998.16
2018-10-17T15:26:08.574Z,998.25
2018-10-17T15:36:08.649Z,998.25
2018-10-17T15:46:08.582Z,998.40
2018-10-17T15:56:08.561Z,998.36
2018-10-17T16:06:09.034Z,998.46
2018-10-17T16:16:08.764Z,998.55
2018-10-17T16:26:08.657Z,998.65
2018-10-17T16:36:08.853Z,998.76
2018-10-17T16:46:08.634Z,998.91
2018-10-17T16:56:08.799Z,998.99
2018-10-17T17:06:09.698Z,999.09
2018-10-17T17:16:08.701Z,999.08
2018-10-17T17:26:08.792Z,999.12
2018-10-17T17:36:09.539Z,999.15
2018-10-17T17:46:08.635Z,999.17
2018-10-17T17:56:08.714Z,999.31
2018-10-17T18:06:08.647Z,999.46
2018-10-17T18:16:08.925Z,999.58
2018-10-17T18:26:08.677Z,999.62
2018-10-17T18:36:10.503Z,999.76
2018-10-17T18:46:08.669Z,999.81
2018-10-17T18:56:08.689Z,999.90
2018-10-17T19:06:09.611Z,1000.03
2018-10-17T19:16:09.030Z,1000.24
2018-10-17T19:26:08.564Z,1000.34
2018-10-17T19:36:09.404Z,1000.45
2018-10-17T19:46:08.673Z,1000.37
2018-10-17T19:56:08.837Z,1000.41
2018-10-17T20:06:08.597Z,1000.38
2018-10-17T20:16:08.610Z,1000.48
2018-10-17T20:26:08.676Z,1000.47
2018-10-17T20:36:08.707Z,1000.57
2018-10-17T20:46:08.525Z,1000.64
2018-10-17T20:56:08.713Z,1000.69
2018-10-17T21:06:08.602Z,1000.75
2018-10-17T21:16:08.636Z,1000.80
2018-10-17T21:26:10.388Z,1000.84
2018-10-17T21:36:09.551Z,1000.84
2018-10-17T21:46:08.686Z,1000.85
2018-10-17T21:56:08.785Z,1000.90
2018-10-17T22:06:08.693Z,1000.96
2018-10-17T22:16:08.703Z,1000.96
2018-10-17T22:26:09.534Z,1001.09
2018-10-17T22:36:08.611Z,1001.05
2018-10-17T22:46:08.650Z,1001.03
2018-10-17T22:56:08.711Z,1001.00
2018-10-17T23:06:08.853Z,1001.02
2018-10-17T23:16:09.138Z,1001.03
2018-10-17T23:26:08.735Z,1000.99
2018-10-17T23:36:08.595Z,1001.02
2018-10-17T23:46:08.634Z,1001.09
2018-10-17T23:56:08.788Z,1001.12
